Nearby METAR Reports

 

KNUQ - Moffett Nas/Mtn, California, USA
Distance from station: N 9mi, 14km
Updated: Wed, 08-Jul-2020 6:55am PDT
NOT Current
Clear
Clear
 Wind from calm
Wind: Calm
Temperature: 59°F , 15°C
Dew Point: 55°F , 13°C
Humidity: 88%
Barometer: 29.90 inHg , 1012.5 hPa
Clouds: Clear
Visibility: 9 miles , 14 km
2020/07/08 13:55 KNUQ 081355Z AUTO 00000KT 9SM CLR 15/13 A2990 RMK AO2
KSJC - San Jose, California, USA
Distance from station: NE 9mi, 14km
Updated: Wed, 08-Jul-2020 8:53pm PDT
Few Clouds
Few Clouds
 Wind from NW
Wind: NW 10 mph , 17 km/h
Temperature: 64°F , 18°C
Dew Point: 52°F , 11°C
Humidity: 64%
Barometer: 29.87 inHg , 1011.5 hPa
Clouds: Few Clouds
Visibility: 10 miles , 16 km
Cloud details: Few Clouds 4000 ft
2020/07/09 03:53 KSJC 090353Z 32009KT 10SM FEW040 18/11 A2987 RMK AO2 SLP113 T01830106
 
KRHV - San Jose/Reid, California, USA
Distance from station: ENE 12mi, 19km
Updated: Wed, 08-Jul-2020 9:50pm PDT
Clear
Clear
 Wind from NW
Wind: NW 7 mph , 11 km/h
Temperature: 64°F , 18°C
Dew Point: 52°F , 11°C
Humidity: 64%
Barometer: 29.89 inHg , 1012.2 hPa
Clouds: Clear
Visibility: 10 miles , 16 km
2020/07/09 04:50 KRHV 090450Z 31006KT 10SM SKC 18/11 A2989 RMK LAST
KPAO - Palo Alto, California, USA
Distance from station: NNW 14mi, 23km
Updated: Wed, 08-Jul-2020 3:47pm PDT
NOT Current
Clear
Clear
 Wind from N
Wind: N 20 mph , 31 km/h
Temperature: 72°F , 22°C
Dew Point: 61°F , 16°C
Humidity: 69%
Barometer: 29.85 inHg , 1010.8 hPa
Clouds: Clear
Visibility: 10 miles , 16 km
2020/07/08 22:47 KPAO 082247Z 35017KT 10SM SKC 22/16 A2985 RMK LAST
 
KSQL - San Carlos Airpo, California, USA
Distance from station: NW 21mi, 34km
Updated: Wed, 08-Jul-2020 9:35pm PDT
Clear
Clear
 Wind from NNW
Wind: NNW 5 mph , 7 km/h
Temperature: 61°F , 16°C
Dew Point: 50°F , 10°C
Humidity: 68%
Barometer: 29.89 inHg , 1012.2 hPa
Clouds: Clear
Visibility: 10 miles , 16 km
2020/07/09 04:35 KSQL 090435Z AUTO 34004KT 10SM CLR 16/10 A2989 RMK AO2
KWVI - Watsonville, California, USA
Distance from station: SSE 27mi, 44km
Updated: Wed, 08-Jul-2020 9:26pm PDT
Mostly Cloudy
Mostly Cloudy
 Wind from E
Wind: E 5 mph , 7 km/h
Temperature: 55°F , 13°C
Dew Point: 54°F , 12°C
Humidity: 94%
Barometer: 29.91 inHg , 1012.9 hPa
Clouds: Mostly Cloudy
Visibility: 10 miles , 16 km
Cloud details: Mostly Cloudy 900 ft
2020/07/09 04:26 KWVI 090426Z AUTO 10004KT 10SM BKN009 13/12 A2991 RMK AO2 T01330117
 
KHWD - Hayward, California, USA
Distance from station: N 28mi, 44km
Updated: Wed, 08-Jul-2020 8:54pm PDT
Clear
Clear
 Wind from W
Wind: W 6 mph , 9 km/h
Temperature: 61°F , 16°C
Dew Point: 52°F , 11°C
Humidity: 72%
Barometer: 29.87 inHg , 1011.5 hPa
Clouds: Clear
Visibility: 10 miles , 16 km
2020/07/09 03:54 KHWD 090354Z AUTO 28005KT 10SM CLR 16/11 A2987 RMK AO2 SLP123 T01610106
KSFO - San Francisco, California, USA
Distance from station: NW 30mi, 49km
Updated: Wed, 08-Jul-2020 8:56pm PDT
Few Clouds
Few Clouds
 Wind from WNW
Wind: WNW 16 mph , 26 km/h
Temperature: 57°F , 14°C
Dew Point: 50°F , 10°C
Humidity: 77%
Barometer: 29.87 inHg , 1011.5 hPa
Clouds: Few Clouds
Visibility: 10 miles , 16 km
Cloud details: Few Clouds 1200 ft
2020/07/09 03:56 KSFO 090356Z 29014KT 10SM FEW012 14/10 A2987 RMK AO2 SLP115 T01440100
 
KHAF - Half Moon Bay, California, USA
Distance from station: WNW 31mi, 50km
Updated: Wed, 08-Jul-2020 9:40pm PDT
Mist, Overcast
Mist, Overcast
 Wind from NW
Wind: NW 6 mph , 9 km/h
Temperature: 55°F , 13°C
Dew Point: 52°F , 11°C
Humidity: 88%
Barometer: 29.92 inHg , 1013.2 hPa
Summary: Mist
Clouds: Overcast
Visibility: 5 miles , 8 km
Cloud details: Overcast 1300 ft
2020/07/09 04:40 KHAF 090440Z AUTO 31005KT 5SM BR OVC013 13/11 A2992 RMK AO2
KOAK - Oakland, California, USA
Distance from station: NNW 31mi, 50km
Updated: Wed, 08-Jul-2020 8:53pm PDT
Few Clouds
Few Clouds
 Wind from W
Wind: W 13 mph , 20 km/h
Temperature: 61°F , 16°C
Dew Point: 52°F , 11°C
Humidity: 72%
Barometer: 29.88 inHg , 1011.9 hPa
Clouds: Few Clouds
Visibility: 10 miles , 16 km
Cloud details: Few Clouds 1300 ft
2020/07/09 03:53 KOAK 090353Z 28011KT 10SM FEW013 16/11 A2988 RMK AO2 SLP116 T01610106
 
KLVK - Livermore, California, USA
Distance from station: NNE 31mi, 51km
Updated: Wed, 08-Jul-2020 8:53pm PDT
Clear
Clear
 Wind from WNW
Wind: WNW 9 mph , 15 km/h
Temperature: 66°F , 19°C
Dew Point: 52°F , 11°C
Humidity: 60%
Barometer: 29.84 inHg , 1010.5 hPa
Clouds: Clear
Visibility: 10 miles , 16 km
2020/07/09 03:53 KLVK 090353Z AUTO 30008KT 10SM CLR 19/11 A2984 RMK AO2 SLP101 T01890106
KCVH - Hollister Muni, California, USA
Distance from station: SE 42mi, 68km
Updated: Wed, 08-Jul-2020 9:40pm PDT
Clear
Clear
 Wind from calm
Wind: Calm
Temperature: 59°F , 15°C
Dew Point: 50°F , 10°C
Humidity: 72%
Barometer: 29.91 inHg , 1012.9 hPa
Clouds: Clear
Visibility: 10 miles , 16 km
2020/07/09 04:40 KCVH 090440Z AUTO 00000KT 10SM CLR 15/10 A2991 RMK A01
 
KSNS - Salinas, California, USA
Distance from station: SSE 48mi, 77km
Updated: Wed, 08-Jul-2020 8:53pm PDT
Clear
Clear
 Wind from NW
Wind: NW 15 mph , 24 km/h
Temperature: 61°F , 16°C
Dew Point: 52°F , 11°C
Humidity: 72%
Barometer: 29.90 inHg , 1012.5 hPa
Clouds: Clear
Visibility: 9 miles , 14 km
2020/07/09 03:53 KSNS 090353Z AUTO 32013KT 9SM CLR 16/11 A2990 RMK AO2 SLP132 T01610111
KMRY - Monterey, California, USA
Distance from station: SSE 49mi, 78km
Updated: Wed, 08-Jul-2020 9:22pm PDT
Mostly Cloudy
Mostly Cloudy
 Wind from SW
Wind: SW 7 mph , 11 km/h
Temperature: 57°F , 14°C
Dew Point: 52°F , 11°C
Humidity: 82%
Barometer: 29.93 inHg , 1013.5 hPa
Clouds: Mostly Cloudy
Visibility: 10 miles , 16 km
Cloud details: Mostly Cloudy 1000 ft
2020/07/09 04:22 KMRY 090422Z AUTO 23006KT 10SM BKN010 14/11 A2993 RMK AO2 T01440111
 
KCCR - Concord, California, USA
Distance from station: N 50mi, 81km
Updated: Wed, 08-Jul-2020 8:53pm PDT
Clear
Clear
 Wind from SSW
Wind: SSW 17 mph , 28 km/h
Temperature: 70°F , 21°C
Dew Point: 52°F , 11°C
Humidity: 53%
Barometer: 29.81 inHg , 1009.5 hPa
Clouds: Clear
Visibility: 10 miles , 16 km
2020/07/09 03:53 KCCR 090353Z 20015KT 10SM CLR 21/11 A2981 RMK AO2 SLP081 T02060106

Metar display script from Saratoga-Weather.org